sensor_id;sensor_type;location;lat;lon;timestamp;temperature;humidity
46091;DHT22;31826;53.572;10.170;2023-06-14T00:02:03;16.70;98.30
46091;DHT22;31826;53.572;10.170;2023-06-14T00:04:29;16.60;97.70
46091;DHT22;31826;53.572;10.170;2023-06-14T00:06:55;16.70;98.40
46091;DHT22;31826;53.572;10.170;2023-06-14T00:09:22;16.70;98.00
46091;DHT22;31826;53.572;10.170;2023-06-14T00:11:48;16.70;97.80
46091;DHT22;31826;53.572;10.170;2023-06-14T00:14:14;16.70;98.10
46091;DHT22;31826;53.572;10.170;2023-06-14T00:16:40;16.60;98.50
46091;DHT22;31826;53.572;10.170;2023-06-14T00:19:08;16.60;98.10
46091;DHT22;31826;53.572;10.170;2023-06-14T00:21:35;16.60;98.80
46091;DHT22;31826;53.572;10.170;2023-06-14T00:24:02;16.60;98.60
46091;DHT22;31826;53.572;10.170;2023-06-14T00:26:27;16.60;98.50
46091;DHT22;31826;53.572;10.170;2023-06-14T00:28:56;16.60;98.40
46091;DHT22;31826;53.572;10.170;2023-06-14T00:31:22;16.60;98.40
46091;DHT22;31826;53.572;10.170;2023-06-14T00:33:48;16.50;99.30
46091;DHT22;31826;53.572;10.170;2023-06-14T00:36:14;16.50;99.30
46091;DHT22;31826;53.572;10.170;2023-06-14T00:38:40;16.40;99.90
46091;DHT22;31826;53.572;10.170;2023-06-14T00:41:05;16.40;99.50
46091;DHT22;31826;53.572;10.170;2023-06-14T00:43:31;16.40;99.80
46091;DHT22;31826;53.572;10.170;2023-06-14T00:45:57;16.30;99.90
46091;DHT22;31826;53.572;10.170;2023-06-14T00:48:23;16.20;99.90
46091;DHT22;31826;53.572;10.170;2023-06-14T00:50:50;16.30;99.90
46091;DHT22;31826;53.572;10.170;2023-06-14T00:53:18;16.20;99.90
46091;DHT22;31826;53.572;10.170;2023-06-14T00:55:44;16.30;99.90
46091;DHT22;31826;53.572;10.170;2023-06-14T00:58:10;16.30;99.80
46091;DHT22;31826;53.572;10.170;2023-06-14T01:00:36;16.40;99.90
46091;DHT22;31826;53.572;10.170;2023-06-14T01:03:02;16.30;99.90
46091;DHT22;31826;53.572;10.170;2023-06-14T01:05:29;16.20;99.90
46091;DHT22;31826;53.572;10.170;2023-06-14T01:08:18;16.10;99.90
46091;DHT22;31826;53.572;10.170;2023-06-14T01:13:35;16.00;99.90
46091;DHT22;31826;53.572;10.170;2023-06-14T01:16:02;15.90;99.90
46091;DHT22;31826;53.572;10.170;2023-06-14T01:18:29;15.90;99.90
46091;DHT22;31826;53.572;10.170;2023-06-14T01:20:55;16.00;99.90
46091;DHT22;31826;53.572;10.170;2023-06-14T01:23:22;15.90;99.90
46091;DHT22;31826;53.572;10.170;2023-06-14T01:25:49;15.90;99.90
46091;DHT22;31826;53.572;10.170;2023-06-14T01:28:19;15.80;99.90
46091;DHT22;31826;53.572;10.170;2023-06-14T01:30:48;15.80;99.90
46091;DHT22;31826;53.572;10.170;2023-06-14T01:33:17;15.80;99.90
46091;DHT22;31826;53.572;10.170;2023-06-14T01:35:45;15.90;99.90
46091;DHT22;31826;53.572;10.170;2023-06-14T01:38:12;16.00;99.90
46091;DHT22;31826;53.572;10.170;2023-06-14T01:40:39;16.00;99.90
46091;DHT22;31826;53.572;10.170;2023-06-14T01:43:06;15.90;99.90
46091;DHT22;31826;53.572;10.170;2023-06-14T01:45:33;15.80;99.90
46091;DHT22;31826;53.572;10.170;2023-06-14T01:48:00;15.70;99.90
46091;DHT22;31826;53.572;10.170;2023-06-14T01:50:30;15.70;99.90
46091;DHT22;31826;53.572;10.170;2023-06-14T01:52:56;15.70;99.90
46091;DHT22;31826;53.572;10.170;2023-06-14T01:55:22;15.60;99.90
46091;DHT22;31826;53.572;10.170;2023-06-14T01:57:47;15.60;99.90
46091;DHT22;31826;53.572;10.170;2023-06-14T02:00:14;15.60;99.90
46091;DHT22;31826;53.572;10.170;2023-06-14T02:02:41;15.60;99.90
46091;DHT22;31826;53.572;10.170;2023-06-14T02:05:07;15.60;99.90
46091;DHT22;31826;53.572;10.170;2023-06-14T02:07:33;15.50;99.90
46091;DHT22;31826;53.572;10.170;2023-06-14T02:09:59;15.50;99.90
46091;DHT22;31826;53.572;10.170;2023-06-14T02:12:25;15.60;99.90
46091;DHT22;31826;53.572;10.170;2023-06-14T02:14:51;15.60;99.90
46091;DHT22;31826;53.572;10.170;2023-06-14T02:17:16;15.40;99.90
46091;DHT22;31826;53.572;10.170;2023-06-14T02:19:42;15.40;99.90
46091;DHT22;31826;53.572;10.170;2023-06-14T02:22:08;15.50;99.90
46091;DHT22;31826;53.572;10.170;2023-06-14T02:24:34;15.50;99.90
46091;DHT22;31826;53.572;10.170;2023-06-14T02:27:01;15.50;99.90
46091;DHT22;31826;53.572;10.170;2023-06-14T02:29:27;15.60;99.90
46091;DHT22;31826;53.572;10.170;2023-06-14T02:31:53;15.50;99.90
46091;DHT22;31826;53.572;10.170;2023-06-14T02:34:18;15.50;99.90
46091;DHT22;31826;53.572;10.170;2023-06-14T02:36:46;15.40;99.90
46091;DHT22;31826;53.572;10.170;2023-06-14T02:39:13;15.40;99.90
46091;DHT22;31826;53.572;10.170;2023-06-14T02:41:39;15.40;99.90
46091;DHT22;31826;53.572;10.170;2023-06-14T02:44:05;15.40;99.90
46091;DHT22;31826;53.572;10.170;2023-06-14T02:46:31;15.40;99.90
46091;DHT22;31826;53.572;10.170;2023-06-14T02:48:56;15.50;99.90
46091;DHT22;31826;53.572;10.170;2023-06-14T02:51:22;15.40;99.90
46091;DHT22;31826;53.572;10.170;2023-06-14T02:53:48;15.30;99.90
46091;DHT22;31826;53.572;10.170;2023-06-14T02:56:13;15.40;99.90
46091;DHT22;31826;53.572;10.170;2023-06-14T02:58:39;15.40;99.90
46091;DHT22;31826;53.572;10.170;2023-06-14T03:01:06;15.40;99.90
46091;DHT22;31826;53.572;10.170;2023-06-14T03:03:33;15.40;99.90
46091;DHT22;31826;53.572;10.170;2023-06-14T03:05:59;15.40;99.90
46091;DHT22;31826;53.572;10.170;2023-06-14T03:08:29;15.50;99.90
46091;DHT22;31826;53.572;10.170;2023-06-14T03:10:55;15.60;99.90
46091;DHT22;31826;53.572;10.170;2023-06-14T03:13:21;15.60;99.90
46091;DHT22;31826;53.572;10.170;2023-06-14T03:15:47;15.50;99.90
46091;DHT22;31826;53.572;10.170;2023-06-14T03:18:18;15.30;99.90
46091;DHT22;31826;53.572;10.170;2023-06-14T03:20:45;15.30;99.90
46091;DHT22;31826;53.572;10.170;2023-06-14T03:23:13;15.20;99.90
46091;DHT22;31826;53.572;10.170;2023-06-14T03:25:39;15.20;99.90
46091;DHT22;31826;53.572;10.170;2023-06-14T03:28:07;15.30;99.90
46091;DHT22;31826;53.572;10.170;2023-06-14T03:30:33;15.30;99.90
46091;DHT22;31826;53.572;10.170;2023-06-14T03:32:59;15.40;99.90
46091;DHT22;31826;53.572;10.170;2023-06-14T03:35:27;15.40;99.90
46091;DHT22;31826;53.572;10.170;2023-06-14T03:37:53;15.40;99.90
46091;DHT22;31826;53.572;10.170;2023-06-14T03:40:19;15.40;99.90
46091;DHT22;31826;53.572;10.170;2023-06-14T03:42:47;15.40;99.90
46091;DHT22;31826;53.572;10.170;2023-06-14T03:45:13;15.30;99.90
46091;DHT22;31826;53.572;10.170;2023-06-14T03:47:39;15.20;99.90
46091;DHT22;31826;53.572;10.170;2023-06-14T03:50:05;15.20;99.90
46091;DHT22;31826;53.572;10.170;2023-06-14T03:52:31;15.20;99.90
46091;DHT22;31826;53.572;10.170;2023-06-14T03:54:58;15.30;99.90
46091;DHT22;31826;53.572;10.170;2023-06-14T03:57:25;15.30;99.90
46091;DHT22;31826;53.572;10.170;2023-06-14T03:59:51;15.40;99.90
46091;DHT22;31826;53.572;10.170;2023-06-14T04:02:17;15.40;99.90
46091;DHT22;31826;53.572;10.170;2023-06-14T04:04:44;15.50;99.90
46091;DHT22;31826;53.572;10.170;2023-06-14T04:07:11;15.50;99.90
46091;DHT22;31826;53.572;10.170;2023-06-14T04:09:38;15.40;99.90
46091;DHT22;31826;53.572;10.170;2023-06-14T04:12:04;15.50;99.90
46091;DHT22;31826;53.572;10.170;2023-06-14T04:14:30;15.60;99.90
46091;DHT22;31826;53.572;10.170;2023-06-14T04:16:58;15.80;99.90
46091;DHT22;31826;53.572;10.170;2023-06-14T04:19:24;15.80;99.90
46091;DHT22;31826;53.572;10.170;2023-06-14T04:21:50;15.90;99.90
46091;DHT22;31826;53.572;10.170;2023-06-14T04:24:16;16.00;99.90
46091;DHT22;31826;53.572;10.170;2023-06-14T04:26:43;16.10;99.90
46091;DHT22;31826;53.572;10.170;2023-06-14T04:29:16;16.20;99.90
46091;DHT22;31826;53.572;10.170;2023-06-14T04:31:45;16.20;99.90
46091;DHT22;31826;53.572;10.170;2023-06-14T04:34:12;16.30;99.90
46091;DHT22;31826;53.572;10.170;2023-06-14T04:36:44;16.30;99.90
46091;DHT22;31826;53.572;10.170;2023-06-14T04:39:22;16.20;99.90
46091;DHT22;31826;53.572;10.170;2023-06-14T04:41:48;16.20;99.90
46091;DHT22;31826;53.572;10.170;2023-06-14T04:44:17;16.20;99.90
46091;DHT22;31826;53.572;10.170;2023-06-14T04:46:45;16.30;99.90
46091;DHT22;31826;53.572;10.170;2023-06-14T04:49:17;16.40;99.90
46091;DHT22;31826;53.572;10.170;2023-06-14T04:51:44;16.50;99.90
46091;DHT22;31826;53.572;10.170;2023-06-14T04:54:11;16.50;99.90
46091;DHT22;31826;53.572;10.170;2023-06-14T04:56:43;16.60;99.90
46091;DHT22;31826;53.572;10.170;2023-06-14T04:59:09;16.60;99.90
46091;DHT22;31826;53.572;10.170;2023-06-14T05:01:36;16.80;99.90
46091;DHT22;31826;53.572;10.170;2023-06-14T05:04:03;16.90;99.90
46091;DHT22;31826;53.572;10.170;2023-06-14T05:06:29;16.90;99.90
46091;DHT22;31826;53.572;10.170;2023-06-14T05:08:55;17.10;99.90
46091;DHT22;31826;53.572;10.170;2023-06-14T05:11:21;17.10;99.90
46091;DHT22;31826;53.572;10.170;2023-06-14T05:13:49;17.30;99.90
46091;DHT22;31826;53.572;10.170;2023-06-14T05:16:16;17.20;99.90
46091;DHT22;31826;53.572;10.170;2023-06-14T05:18:42;17.20;99.90
46091;DHT22;31826;53.572;10.170;2023-06-14T05:21:08;17.30;99.90
46091;DHT22;31826;53.572;10.170;2023-06-14T05:23:34;17.30;99.90
46091;DHT22;31826;53.572;10.170;2023-06-14T05:26:00;17.50;99.90
46091;DHT22;31826;53.572;10.170;2023-06-14T05:28:28;17.70;99.90
46091;DHT22;31826;53.572;10.170;2023-06-14T05:30:53;17.70;99.90
46091;DHT22;31826;53.572;10.170;2023-06-14T05:33:19;17.90;99.90
46091;DHT22;31826;53.572;10.170;2023-06-14T05:35:45;18.00;99.90
46091;DHT22;31826;53.572;10.170;2023-06-14T05:38:10;18.20;99.90
46091;DHT22;31826;53.572;10.170;2023-06-14T05:40:36;18.30;99.90
46091;DHT22;31826;53.572;10.170;2023-06-14T05:43:02;18.40;99.90
46091;DHT22;31826;53.572;10.170;2023-06-14T05:45:28;18.30;99.90
46091;DHT22;31826;53.572;10.170;2023-06-14T05:47:53;18.00;99.90
46091;DHT22;31826;53.572;10.170;2023-06-14T05:50:21;17.70;99.90
46091;DHT22;31826;53.572;10.170;2023-06-14T05:52:47;17.60;99.90
46091;DHT22;31826;53.572;10.170;2023-06-14T05:55:13;17.70;99.90
46091;DHT22;31826;53.572;10.170;2023-06-14T05:57:39;17.80;99.90
46091;DHT22;31826;53.572;10.170;2023-06-14T06:00:06;17.70;99.90
46091;DHT22;31826;53.572;10.170;2023-06-14T06:02:36;17.70;99.90
46091;DHT22;31826;53.572;10.170;2023-06-14T06:05:02;17.70;99.90
46091;DHT22;31826;53.572;10.170;2023-06-14T06:07:28;17.80;99.90
46091;DHT22;31826;53.572;10.170;2023-06-14T06:09:53;17.60;99.90
46091;DHT22;31826;53.572;10.170;2023-06-14T06:12:19;17.80;99.90
46091;DHT22;31826;53.572;10.170;2023-06-14T06:14:45;18.00;99.90
46091;DHT22;31826;53.572;10.170;2023-06-14T06:17:10;18.30;99.90
46091;DHT22;31826;53.572;10.170;2023-06-14T06:19:36;18.50;99.80
46091;DHT22;31826;53.572;10.170;2023-06-14T06:22:02;18.70;99.60
46091;DHT22;31826;53.572;10.170;2023-06-14T06:24:30;18.90;98.50
46091;DHT22;31826;53.572;10.170;2023-06-14T06:26:55;19.00;98.00
46091;DHT22;31826;53.572;10.170;2023-06-14T06:29:21;19.00;97.60
46091;DHT22;31826;53.572;10.170;2023-06-14T06:31:47;19.20;97.30
46091;DHT22;31826;53.572;10.170;2023-06-14T06:34:12;19.30;97.20
46091;DHT22;31826;53.572;10.170;2023-06-14T06:36:38;19.00;97.10
46091;DHT22;31826;53.572;10.170;2023-06-14T06:39:04;19.00;96.70
46091;DHT22;31826;53.572;10.170;2023-06-14T06:41:38;19.10;95.50
46091;DHT22;31826;53.572;10.170;2023-06-14T06:44:05;19.10;93.60
46091;DHT22;31826;53.572;10.170;2023-06-14T06:46:33;18.70;93.60
46091;DHT22;31826;53.572;10.170;2023-06-14T06:48:59;19.00;94.80
46091;DHT22;31826;53.572;10.170;2023-06-14T06:51:25;18.80;93.10
46091;DHT22;31826;53.572;10.170;2023-06-14T06:53:54;19.00;93.70
46091;DHT22;31826;53.572;10.170;2023-06-14T06:56:21;18.90;92.80
46091;DHT22;31826;53.572;10.170;2023-06-14T06:58:49;18.70;93.30
46091;DHT22;31826;53.572;10.170;2023-06-14T07:01:15;18.50;95.40
46091;DHT22;31826;53.572;10.170;2023-06-14T07:03:41;18.60;95.30
46091;DHT22;31826;53.572;10.170;2023-06-14T07:06:07;18.90;94.50
46091;DHT22;31826;53.572;10.170;2023-06-14T07:08:33;19.30;94.70
46091;DHT22;31826;53.572;10.170;2023-06-14T07:10:58;19.70;93.10
46091;DHT22;31826;53.572;10.170;2023-06-14T07:13:24;19.90;93.10
46091;DHT22;31826;53.572;10.170;2023-06-14T07:15:50;20.20;91.40
46091;DHT22;31826;53.572;10.170;2023-06-14T07:18:18;20.50;90.60
46091;DHT22;31826;53.572;10.170;2023-06-14T07:20:44;20.80;90.40
46091;DHT22;31826;53.572;10.170;2023-06-14T07:23:10;20.90;89.80
46091;DHT22;31826;53.572;10.170;2023-06-14T07:25:36;20.80;90.30
46091;DHT22;31826;53.572;10.170;2023-06-14T07:28:01;20.90;88.50
46091;DHT22;31826;53.572;10.170;2023-06-14T07:30:27;21.00;89.30
46091;DHT22;31826;53.572;10.170;2023-06-14T07:32:55;21.10;89.70
46091;DHT22;31826;53.572;10.170;2023-06-14T07:35:21;21.20;89.30
46091;DHT22;31826;53.572;10.170;2023-06-14T07:37:47;21.40;87.80
46091;DHT22;31826;53.572;10.170;2023-06-14T07:40:13;21.70;87.50
46091;DHT22;31826;53.572;10.170;2023-06-14T07:42:39;22.10;89.00
46091;DHT22;31826;53.572;10.170;2023-06-14T07:45:05;22.10;85.10
46091;DHT22;31826;53.572;10.170;2023-06-14T07:47:32;22.30;85.90
46091;DHT22;31826;53.572;10.170;2023-06-14T07:49:58;21.90;83.50
46091;DHT22;31826;53.572;10.170;2023-06-14T07:52:23;21.90;86.00
46091;DHT22;31826;53.572;10.170;2023-06-14T07:54:49;22.10;86.40
46091;DHT22;31826;53.572;10.170;2023-06-14T07:57:15;22.40;84.10
46091;DHT22;31826;53.572;10.170;2023-06-14T07:59:41;22.00;83.00
46091;DHT22;31826;53.572;10.170;2023-06-14T08:02:06;22.00;85.00
46091;DHT22;31826;53.572;10.170;2023-06-14T08:04:32;22.20;85.60
46091;DHT22;31826;53.572;10.170;2023-06-14T08:06:59;22.20;83.30
46091;DHT22;31826;53.572;10.170;2023-06-14T08:09:25;22.40;86.30
46091;DHT22;31826;53.572;10.170;2023-06-14T08:11:51;22.40;82.00
46091;DHT22;31826;53.572;10.170;2023-06-14T08:14:17;22.30;82.30
46091;DHT22;31826;53.572;10.170;2023-06-14T08:16:42;22.20;81.40
46091;DHT22;31826;53.572;10.170;2023-06-14T08:19:08;21.70;84.40
46091;DHT22;31826;53.572;10.170;2023-06-14T08:21:34;21.90;85.90
46091;DHT22;31826;53.572;10.170;2023-06-14T08:24:02;22.30;84.10
46091;DHT22;31826;53.572;10.170;2023-06-14T08:26:27;22.40;81.70
46091;DHT22;31826;53.572;10.170;2023-06-14T08:28:57;22.80;82.90
46091;DHT22;31826;53.572;10.170;2023-06-14T08:31:23;23.00;79.80
46091;DHT22;31826;53.572;10.170;2023-06-14T08:33:49;22.90;79.80
46091;DHT22;31826;53.572;10.170;2023-06-14T08:36:15;23.10;81.10
46091;DHT22;31826;53.572;10.170;2023-06-14T08:38:41;23.30;80.50
46091;DHT22;31826;53.572;10.170;2023-06-14T08:41:08;23.60;81.10
46091;DHT22;31826;53.572;10.170;2023-06-14T08:43:37;23.20;76.90
46091;DHT22;31826;53.572;10.170;2023-06-14T08:46:03;22.50;79.20
46091;DHT22;31826;53.572;10.170;2023-06-14T08:48:30;22.70;80.90
46091;DHT22;31826;53.572;10.170;2023-06-14T08:51:02;22.80;78.10
46091;DHT22;31826;53.572;10.170;2023-06-14T08:53:32;22.10;79.80
46091;DHT22;31826;53.572;10.170;2023-06-14T08:56:02;22.00;81.00
46091;DHT22;31826;53.572;10.170;2023-06-14T08:58:30;22.20;81.80
46091;DHT22;31826;53.572;10.170;2023-06-14T09:01:01;22.30;81.80
46091;DHT22;31826;53.572;10.170;2023-06-14T09:03:27;23.00;82.70
46091;DHT22;31826;53.572;10.170;2023-06-14T09:05:59;23.40;78.90
46091;DHT22;31826;53.572;10.170;2023-06-14T09:08:26;23.40;77.40
46091;DHT22;31826;53.572;10.170;2023-06-14T09:10:56;22.80;78.00
46091;DHT22;31826;53.572;10.170;2023-06-14T09:13:22;23.20;81.00
46091;DHT22;31826;53.572;10.170;2023-06-14T09:15:48;23.60;79.60
46091;DHT22;31826;53.572;10.170;2023-06-14T09:18:13;24.20;79.10
46091;DHT22;31826;53.572;10.170;2023-06-14T09:20:40;24.50;78.30
46091;DHT22;31826;53.572;10.170;2023-06-14T09:23:06;24.80;76.40
46091;DHT22;31826;53.572;10.170;2023-06-14T09:25:38;25.00;76.70
46091;DHT22;31826;53.572;10.170;2023-06-14T09:28:07;25.30;75.40
46091;DHT22;31826;53.572;10.170;2023-06-14T09:30:33;25.50;72.80
46091;DHT22;31826;53.572;10.170;2023-06-14T09:32:59;25.30;74.50
46091;DHT22;31826;53.572;10.170;2023-06-14T09:35:25;25.40;73.80
46091;DHT22;31826;53.572;10.170;2023-06-14T09:37:55;25.50;74.30
46091;DHT22;31826;53.572;10.170;2023-06-14T09:40:21;25.50;73.10
46091;DHT22;31826;53.572;10.170;2023-06-14T09:42:47;25.60;74.80
46091;DHT22;31826;53.572;10.170;2023-06-14T09:45:13;25.60;71.70
46091;DHT22;31826;53.572;10.170;2023-06-14T09:47:41;25.50;74.10
46091;DHT22;31826;53.572;10.170;2023-06-14T09:50:08;25.70;72.50
46091;DHT22;31826;53.572;10.170;2023-06-14T09:52:33;25.60;73.10
46091;DHT22;31826;53.572;10.170;2023-06-14T09:54:59;25.90;73.60
46091;DHT22;31826;53.572;10.170;2023-06-14T09:57:27;26.10;72.10
46091;DHT22;31826;53.572;10.170;2023-06-14T09:59:57;26.30;72.60
46091;DHT22;31826;53.572;10.170;2023-06-14T10:02:31;25.90;70.40
46091;DHT22;31826;53.572;10.170;2023-06-14T10:05:03;25.90;72.10
46091;DHT22;31826;53.572;10.170;2023-06-14T10:07:33;25.90;72.90
46091;DHT22;31826;53.572;10.170;2023-06-14T10:10:01;26.30;71.20
46091;DHT22;31826;53.572;10.170;2023-06-14T10:12:27;26.30;70.30
46091;DHT22;31826;53.572;10.170;2023-06-14T10:14:53;25.60;71.30
46091;DHT22;31826;53.572;10.170;2023-06-14T10:17:27;25.50;72.10
46091;DHT22;31826;53.572;10.170;2023-06-14T10:20:10;25.90;72.10
46091;DHT22;31826;53.572;10.170;2023-06-14T10:22:58;25.90;70.00
46091;DHT22;31826;53.572;10.170;2023-06-14T10:25:29;26.00;71.10
46091;DHT22;31826;53.572;10.170;2023-06-14T10:28:19;25.60;68.80
46091;DHT22;31826;53.572;10.170;2023-06-14T10:31:03;25.30;70.80
46091;DHT22;31826;53.572;10.170;2023-06-14T10:33:39;24.80;72.00
46091;DHT22;31826;53.572;10.170;2023-06-14T10:36:10;25.20;73.70
46091;DHT22;31826;53.572;10.170;2023-06-14T10:38:39;25.80;69.60
46091;DHT22;31826;53.572;10.170;2023-06-14T10:41:05;25.90;71.50
46091;DHT22;31826;53.572;10.170;2023-06-14T10:43:32;25.80;69.50
46091;DHT22;31826;53.572;10.170;2023-06-14T10:46:18;25.80;70.00
46091;DHT22;31826;53.572;10.170;2023-06-14T10:48:48;26.20;69.50
46091;DHT22;31826;53.572;10.170;2023-06-14T10:51:20;26.10;69.50
46091;DHT22;31826;53.572;10.170;2023-06-14T10:53:50;25.90;70.30
46091;DHT22;31826;53.572;10.170;2023-06-14T10:56:29;26.20;70.10
46091;DHT22;31826;53.572;10.170;2023-06-14T10:58:59;27.00;69.10
46091;DHT22;31826;53.572;10.170;2023-06-14T11:01:48;26.90;66.60
46091;DHT22;31826;53.572;10.170;2023-06-14T11:04:23;26.90;67.90
46091;DHT22;31826;53.572;10.170;2023-06-14T11:07:10;26.70;67.10
46091;DHT22;31826;53.572;10.170;2023-06-14T11:10:00;26.40;68.10
46091;DHT22;31826;53.572;10.170;2023-06-14T11:12:32;26.80;68.70
46091;DHT22;31826;53.572;10.170;2023-06-14T11:14:59;27.00;67.50
46091;DHT22;31826;53.572;10.170;2023-06-14T11:17:26;27.00;66.40
46091;DHT22;31826;53.572;10.170;2023-06-14T11:20:08;26.90;66.30
46091;DHT22;31826;53.572;10.170;2023-06-14T11:22:40;26.40;67.00
46091;DHT22;31826;53.572;10.170;2023-06-14T11:25:09;26.30;66.60
46091;DHT22;31826;53.572;10.170;2023-06-14T11:27:34;26.10;68.20
46091;DHT22;31826;53.572;10.170;2023-06-14T11:30:00;26.20;69.30
46091;DHT22;31826;53.572;10.170;2023-06-14T11:32:26;26.10;67.80
46091;DHT22;31826;53.572;10.170;2023-06-14T11:34:51;25.90;69.20
46091;DHT22;31826;53.572;10.170;2023-06-14T11:37:18;26.00;69.20
46091;DHT22;31826;53.572;10.170;2023-06-14T11:39:44;26.50;70.10
46091;DHT22;31826;53.572;10.170;2023-06-14T11:44:51;26.80;65.40
46091;DHT22;31826;53.572;10.170;2023-06-14T11:47:17;25.50;67.30
46091;DHT22;31826;53.572;10.170;2023-06-14T11:49:43;25.30;68.80
46091;DHT22;31826;53.572;10.170;2023-06-14T11:52:08;25.30;69.00
46091;DHT22;31826;53.572;10.170;2023-06-14T11:54:34;25.70;70.00
46091;DHT22;31826;53.572;10.170;2023-06-14T11:57:00;26.20;68.30
46091;DHT22;31826;53.572;10.170;2023-06-14T11:59:26;26.80;68.80
46091;DHT22;31826;53.572;10.170;2023-06-14T12:01:55;27.30;65.60
46091;DHT22;31826;53.572;10.170;2023-06-14T12:04:26;27.30;65.70
46091;DHT22;31826;53.572;10.170;2023-06-14T12:06:52;27.20;65.60
46091;DHT22;31826;53.572;10.170;2023-06-14T12:09:21;27.00;65.80
46091;DHT22;31826;53.572;10.170;2023-06-14T12:11:49;26.70;64.90
46091;DHT22;31826;53.572;10.170;2023-06-14T12:14:15;26.80;67.50
46091;DHT22;31826;53.572;10.170;2023-06-14T12:16:42;26.50;65.90
46091;DHT22;31826;53.572;10.170;2023-06-14T12:19:17;26.10;66.80
46091;DHT22;31826;53.572;10.170;2023-06-14T12:21:46;26.20;67.70
46091;DHT22;31826;53.572;10.170;2023-06-14T12:24:13;26.00;67.20
46091;DHT22;31826;53.572;10.170;2023-06-14T12:26:41;25.90;67.30
46091;DHT22;31826;53.572;10.170;2023-06-14T12:29:07;25.90;68.20
46091;DHT22;31826;53.572;10.170;2023-06-14T12:31:33;26.50;70.30
46091;DHT22;31826;53.572;10.170;2023-06-14T12:33:59;27.30;69.80
46091;DHT22;31826;53.572;10.170;2023-06-14T12:36:26;28.00;68.50
46091;DHT22;31826;53.572;10.170;2023-06-14T12:38:52;28.70;68.10
46091;DHT22;31826;53.572;10.170;2023-06-14T12:41:22;28.90;63.50
46091;DHT22;31826;53.572;10.170;2023-06-14T12:43:48;28.60;61.90
46091;DHT22;31826;53.572;10.170;2023-06-14T12:46:14;28.20;62.80
46091;DHT22;31826;53.572;10.170;2023-06-14T12:48:39;28.40;62.00
46091;DHT22;31826;53.572;10.170;2023-06-14T12:51:05;28.30;63.10
46091;DHT22;31826;53.572;10.170;2023-06-14T12:53:31;27.90;62.30
46091;DHT22;31826;53.572;10.170;2023-06-14T12:55:57;27.60;65.50
46091;DHT22;31826;53.572;10.170;2023-06-14T12:58:22;27.40;63.80
46091;DHT22;31826;53.572;10.170;2023-06-14T13:00:49;27.10;64.20
46091;DHT22;31826;53.572;10.170;2023-06-14T13:03:15;27.20;64.80
46091;DHT22;31826;53.572;10.170;2023-06-14T13:05:41;27.70;65.00
46091;DHT22;31826;53.572;10.170;2023-06-14T13:08:08;28.30;64.10
46091;DHT22;31826;53.572;10.170;2023-06-14T13:10:34;28.90;63.10
46091;DHT22;31826;53.572;10.170;2023-06-14T13:13:00;29.60;62.60
46091;DHT22;31826;53.572;10.170;2023-06-14T13:15:26;30.10;62.20
46091;DHT22;31826;53.572;10.170;2023-06-14T13:17:52;30.10;60.40
46091;DHT22;31826;53.572;10.170;2023-06-14T13:20:18;29.90;60.90
46091;DHT22;31826;53.572;10.170;2023-06-14T13:22:44;29.80;59.80
46091;DHT22;31826;53.572;10.170;2023-06-14T13:25:10;29.20;59.50
46091;DHT22;31826;53.572;10.170;2023-06-14T13:27:36;28.50;59.10
46091;DHT22;31826;53.572;10.170;2023-06-14T13:30:03;28.10;61.10
46091;DHT22;31826;53.572;10.170;2023-06-14T13:32:31;28.10;62.60
46091;DHT22;31826;53.572;10.170;2023-06-14T13:34:56;28.30;64.30
46091;DHT22;31826;53.572;10.170;2023-06-14T13:37:22;29.00;63.00
46091;DHT22;31826;53.572;10.170;2023-06-14T13:39:48;29.60;60.10
46091;DHT22;31826;53.572;10.170;2023-06-14T13:42:13;29.70;59.40
46091;DHT22;31826;53.572;10.170;2023-06-14T13:44:39;29.50;59.40
46091;DHT22;31826;53.572;10.170;2023-06-14T13:47:05;29.70;60.10
46091;DHT22;31826;53.572;10.170;2023-06-14T13:49:31;29.10;58.40
46091;DHT22;31826;53.572;10.170;2023-06-14T13:51:57;29.10;61.10
46091;DHT22;31826;53.572;10.170;2023-06-14T13:54:23;29.00;60.00
46091;DHT22;31826;53.572;10.170;2023-06-14T13:56:49;29.40;59.60
46091;DHT22;31826;53.572;10.170;2023-06-14T13:59:14;29.60;57.70
46091;DHT22;31826;53.572;10.170;2023-06-14T14:01:41;30.00;61.40
46091;DHT22;31826;53.572;10.170;2023-06-14T14:04:07;30.20;57.80
46091;DHT22;31826;53.572;10.170;2023-06-14T14:06:33;30.10;58.50
46091;DHT22;31826;53.572;10.170;2023-06-14T14:09:00;29.80;58.50
46091;DHT22;31826;53.572;10.170;2023-06-14T14:11:26;30.20;58.70
46091;DHT22;31826;53.572;10.170;2023-06-14T14:13:53;30.30;56.30
46091;DHT22;31826;53.572;10.170;2023-06-14T14:16:19;29.90;57.90
46091;DHT22;31826;53.572;10.170;2023-06-14T14:18:46;29.70;59.90
46091;DHT22;31826;53.572;10.170;2023-06-14T14:21:11;30.00;57.50
46091;DHT22;31826;53.572;10.170;2023-06-14T14:23:37;30.20;58.70
46091;DHT22;31826;53.572;10.170;2023-06-14T14:26:03;30.20;56.10
46091;DHT22;31826;53.572;10.170;2023-06-14T14:28:30;29.90;57.00
46091;DHT22;31826;53.572;10.170;2023-06-14T14:30:56;29.50;56.80
46091;DHT22;31826;53.572;10.170;2023-06-14T14:33:22;29.50;58.10
46091;DHT22;31826;53.572;10.170;2023-06-14T14:35:48;29.80;58.20
46091;DHT22;31826;53.572;10.170;2023-06-14T14:38:14;29.60;56.30
46091;DHT22;31826;53.572;10.170;2023-06-14T14:40:42;29.40;56.10
46091;DHT22;31826;53.572;10.170;2023-06-14T14:43:09;29.30;58.40
46091;DHT22;31826;53.572;10.170;2023-06-14T14:45:34;29.60;56.80
46091;DHT22;31826;53.572;10.170;2023-06-14T14:48:00;29.80;57.50
46091;DHT22;31826;53.572;10.170;2023-06-14T14:50:26;29.90;56.40
46091;DHT22;31826;53.572;10.170;2023-06-14T14:52:52;29.50;55.30
46091;DHT22;31826;53.572;10.170;2023-06-14T14:55:17;28.80;55.90
46091;DHT22;31826;53.572;10.170;2023-06-14T14:57:45;28.80;56.80
46091;DHT22;31826;53.572;10.170;2023-06-14T15:00:11;28.60;56.40
46091;DHT22;31826;53.572;10.170;2023-06-14T15:02:36;28.20;57.40
46091;DHT22;31826;53.572;10.170;2023-06-14T15:05:02;28.40;58.60
46091;DHT22;31826;53.572;10.170;2023-06-14T15:07:28;28.60;58.60
46091;DHT22;31826;53.572;10.170;2023-06-14T15:09:55;28.90;59.30
46091;DHT22;31826;53.572;10.170;2023-06-14T15:12:21;29.10;57.50
46091;DHT22;31826;53.572;10.170;2023-06-14T15:14:50;29.20;56.70
46091;DHT22;31826;53.572;10.170;2023-06-14T15:17:16;29.10;57.00
46091;DHT22;31826;53.572;10.170;2023-06-14T15:19:46;29.30;57.30
46091;DHT22;31826;53.572;10.170;2023-06-14T15:22:13;29.50;56.10